Time;durP1;ratioP1;P1;durP2;ratioP2;P2;SDS_P1;SDS_P2;PMS_P1;PMS_P2;Temp;Humidity;BMP_temperature;BMP_pressure;BME280_temperature;BME280_humidity;BME280_pressure;Samples;Min_cycle;Max_cycle;Signal;HPM_P1;HPM_P2
2024/02/11 00:02:09;;;;;;;21.30;10.00;;;;;;;7.90;100.00;98628.70;108295;1251;72747;-58
2024/02/11 00:05:17;;;;;;;26.90;10.00;;;;;;;7.83;100.00;98625.89;108371;1251;70094;-58
2024/02/11 00:08:29;;;;;;;24.80;10.60;;;;;;;7.78;100.00;98622.48;108342;1251;73269;-58
2024/02/11 00:11:42;;;;;;;22.00;11.00;;;;;;;8.32;100.00;98615.65;108403;1252;61545;-57
2024/02/11 00:14:41;;;;;;;20.70;10.90;;;;;;;7.97;100.00;98617.22;108326;1252;58905;-58
2024/02/11 00:17:08;;;;;;;30.30;10.20;;;;;;;7.71;100.00;98614.41;108448;1251;73849;-58
2024/02/11 00:19:56;;;;;;;;;;;;;;;7.83;100.00;98612.28;108412;1253;68234;-58
2024/02/11 00:23:10;;;;;;;18.30;10.70;;;;;;;7.78;100.00;98610.08;108363;1251;73366;-58
2024/02/11 00:26:23;;;;;;;16.10;10.70;;;;;;;7.70;100.00;98608.39;108416;1252;62906;-58
2024/02/11 00:29:34;;;;;;;16.60;10.20;;;;;;;7.71;100.00;98610.09;108265;1253;58722;-59
2024/02/11 00:32:47;;;;;;;17.60;11.00;;;;;;;8.03;100.00;98608.36;108390;1251;72855;-58
2024/02/11 00:36:00;;;;;;;22.40;10.30;;;;;;;8.50;100.00;98599.38;108419;1251;68531;-58
2024/02/11 00:39:12;;;;;;;22.50;11.80;;;;;;;8.26;100.00;98604.44;108381;1251;74096;-58
2024/02/11 00:42:06;;;;;;;14.70;10.50;;;;;;;8.05;100.00;98607.54;108379;1251;60591;-58
2024/02/11 00:45:14;;;;;;;22.70;10.90;;;;;;;7.77;100.00;98602.64;108208;1253;61174;-58
2024/02/11 00:48:28;;;;;;;19.30;10.40;;;;;;;7.83;100.00;98602.70;108345;1253;74492;-59
2024/02/11 00:51:39;;;;;;;20.10;10.40;;;;;;;8.64;100.00;98603.94;108264;1251;69314;-58
2024/02/11 00:54:50;;;;;;;27.50;10.90;;;;;;;8.26;100.00;98609.48;108374;1252;72362;-58
2024/02/11 00:58:03;;;;;;;22.40;10.00;;;;;;;8.18;100.00;98605.86;108323;1251;60918;-58
2024/02/11 01:01:14;;;;;;;22.30;10.00;;;;;;;8.70;100.00;98612.40;108186;1251;60325;-59
2024/02/11 01:04:15;;;;;;;16.70;9.30;;;;;;;7.98;100.00;98619.75;108366;1251;71849;-58
2024/02/11 01:06:43;;;;;;;24.70;9.90;;;;;;;8.22;100.00;98620.14;108308;1251;69415;-58
2024/02/11 01:09:48;;;;;;;18.80;9.90;;;;;;;7.76;100.00;98622.73;108293;1252;72898;-60
2024/02/11 01:12:53;;;;;;;23.10;11.40;;;;;;;7.70;100.00;98620.38;108369;1252;60577;-58
2024/02/11 01:15:58;;;;;;;18.10;10.60;;;;;;;7.97;100.00;98616.70;108316;1253;59758;-58
2024/02/11 01:19:04;;;;;;;14.30;10.40;;;;;;;7.75;100.00;98611.08;108443;1252;71648;-58
2024/02/11 01:22:10;;;;;;;28.00;11.50;;;;;;;8.56;100.00;98603.62;108401;1252;69678;-58
2024/02/11 01:25:02;;;;;;;17.80;10.40;;;;;;;8.40;100.00;98605.32;108333;1253;72633;-58
2024/02/11 01:27:52;;;;;;;21.60;9.90;;;;;;;8.12;100.00;98611.39;108393;1251;62179;-58
2024/02/11 01:30:57;;;;;;;17.20;11.60;;;;;;;8.53;100.00;98616.01;108403;1251;58771;-58
2024/02/11 01:34:09;;;;;;;19.90;10.10;;;;;;;7.97;100.00;98619.80;108258;1252;72964;-59
2024/02/11 01:37:20;;;;;;;14.80;10.00;;;;;;;8.04;100.00;98610.40;108278;1251;69020;-58
2024/02/11 01:40:32;;;;;;;21.60;10.20;;;;;;;8.28;100.00;98603.30;108272;1251;74736;-63
2024/02/11 01:43:44;;;;;;;13.10;9.30;;;;;;;8.07;100.00;98604.66;108364;1252;60588;-58
2024/02/11 01:46:55;;;;;;;14.20;9.60;;;;;;;7.94;100.00;98604.45;108282;1251;60229;-58
2024/02/11 01:50:08;;;;;;;18.80;10.50;;;;;;;7.84;100.00;98601.41;108297;1251;72812;-58
2024/02/11 01:53:20;;;;;;;15.90;10.60;;;;;;;8.17;100.00;98612.91;108458;1251;69703;-58
2024/02/11 01:56:31;;;;;;;24.70;9.60;;;;;;;8.60;100.00;98623.36;108157;1253;72727;-58
2024/02/11 01:59:43;;;;;;;18.20;9.80;;;;;;;8.65;100.00;98609.51;108400;1252;60574;-58
2024/02/11 02:02:54;;;;;;;28.90;10.60;;;;;;;8.72;100.00;98604.91;108366;1252;59097;-58
2024/02/11 02:06:05;;;;;;;18.90;9.90;;;;;;;8.72;100.00;98617.00;108471;1253;75039;-59
2024/02/11 02:09:18;;;;;;;34.30;9.90;;;;;;;8.74;100.00;98621.27;108382;1251;69096;-58
2024/02/11 02:12:29;;;;;;;21.30;10.10;;;;;;;8.77;100.00;98624.77;108359;1252;72443;-58
2024/02/11 02:15:42;;;;;;;17.00;9.80;;;;;;;8.84;100.00;98625.66;108297;1253;61337;-58
2024/02/11 02:18:59;;;;;;;27.50;11.10;;;;;;;8.81;100.00;98628.42;108077;1251;60178;-58
2024/02/11 02:22:22;;;;;;;23.30;11.20;;;;;;;8.76;100.00;98623.73;108192;1251;72095;-58
2024/02/11 02:25:37;;;;;;;14.00;10.50;;;;;;;8.77;100.00;98621.44;108222;1252;70858;-58
2024/02/11 02:28:48;;;;;;;24.00;10.20;;;;;;;8.11;100.00;98617.58;108363;1252;71031;-59
2024/02/11 02:32:00;;;;;;;17.50;10.80;;;;;;;8.77;100.00;98608.53;108182;1252;60573;-58
2024/02/11 02:35:21;;;;;;;16.10;10.70;;;;;;;8.84;100.00;98606.45;108337;1253;60370;-58
2024/02/11 02:38:35;;;;;;;15.50;10.20;;;;;;;8.88;100.00;98603.58;108337;1251;72832;-58
2024/02/11 02:42:03;;;;;;;30.70;10.60;;;;;;;8.87;100.00;98603.98;108337;1253;69170;-58
2024/02/11 02:45:14;;;;;;;26.40;11.00;;;;;;;8.83;100.00;98602.28;108376;1253;72451;-58
2024/02/11 02:48:25;;;;;;;28.30;12.00;;;;;;;8.79;100.00;98601.27;108454;1251;62580;-58
2024/02/11 02:51:39;;;;;;;19.80;10.90;;;;;;;8.69;100.00;98609.09;108220;1251;59913;-57
2024/02/11 02:54:49;;;;;;;39.10;11.80;;;;;;;8.50;100.00;98615.98;108372;1251;72645;-59
2024/02/11 02:57:52;;;;;;;19.40;11.00;;;;;;;7.90;100.00;98621.39;108387;1251;69621;-58
2024/02/11 03:01:00;;;;;;;42.40;10.60;;;;;;;7.94;100.00;98622.42;108131;1253;72398;-58
2024/02/11 03:04:10;;;;;;;23.80;10.10;;;;;;;7.87;100.00;98618.91;108314;1251;60600;-59
2024/02/11 03:07:18;;;;;;;20.90;10.70;;;;;;;8.68;100.00;98608.27;108387;1253;60139;-58
2024/02/11 03:10:32;;;;;;;40.10;11.10;;;;;;;8.77;100.00;98607.66;108331;1251;71660;-58
2024/02/11 03:13:47;;;;;;;22.10;11.00;;;;;;;8.42;100.00;98607.83;108421;1251;69596;-59
2024/02/11 03:17:02;;;;;;;16.10;10.40;;;;;;;7.94;100.00;98611.42;108402;1253;73353;-58
2024/02/11 03:20:15;;;;;;;29.50;10.70;;;;;;;7.90;100.00;98611.25;108437;1251;61045;-58
2024/02/11 03:23:26;;;;;;;30.80;11.40;;;;;;;7.90;100.00;98607.41;108349;1253;59988;-59
2024/02/11 03:26:49;;;;;;;24.90;11.20;;;;;;;7.90;100.00;98607.39;108367;1251;73688;-58
2024/02/11 03:30:00;;;;;;;20.00;11.70;;;;;;;8.31;100.00;98612.02;108411;1251;68165;-59
2024/02/11 03:33:11;;;;;;;28.70;10.60;;;;;;;7.89;100.00;98610.77;108383;1251;73027;-58
2024/02/11 03:36:22;;;;;;;19.40;10.90;;;;;;;8.41;100.00;98608.95;108297;1253;59880;-58
2024/02/11 03:39:34;;;;;;;36.90;11.50;;;;;;;8.72;100.00;98611.55;108349;1253;59773;-58
2024/02/11 03:42:50;;;;;;;22.40;11.30;;;;;;;8.77;100.00;98609.74;108429;1253;74151;-58
2024/02/11 03:45:58;;;;;;;23.30;12.50;;;;;;;7.97;100.00;98618.44;108411;1251;69304;-58
2024/02/11 03:48:50;;;;;;;40.60;11.80;;;;;;;7.77;100.00;98614.16;108395;1251;72366;-58
2024/02/11 03:51:56;;;;;;;40.20;11.90;;;;;;;7.75;100.00;98608.30;108327;1253;62880;-58
2024/02/11 03:54:30;;;;;;;35.20;11.80;;;;;;;7.77;100.00;98612.05;108159;1251;59874;-58
2024/02/11 03:57:18;;;;;;;;;;;;;;;7.79;100.00;98614.39;108399;1251;73645;-58
2024/02/11 04:00:48;;;;;;;33.30;11.30;;;;;;;7.86;100.00;98622.45;108369;1251;69610;-58
2024/02/11 04:03:59;;;;;;;43.10;11.50;;;;;;;7.77;100.00;98616.42;108190;1251;73169;-58
2024/02/11 04:07:10;;;;;;;34.90;11.90;;;;;;;7.76;100.00;98614.71;108396;1252;59532;-58
2024/02/11 04:10:23;;;;;;;18.10;12.20;;;;;;;7.84;100.00;98607.70;108359;1252;59913;-58
2024/02/11 04:12:58;;;;;;;29.50;12.00;;;;;;;7.80;100.00;98599.15;108364;1251;73568;-58
2024/02/11 04:16:05;;;;;;;22.70;11.70;;;;;;;7.83;100.00;98598.52;108448;1251;69401;-58
2024/02/11 04:19:11;;;;;;;56.90;12.00;;;;;;;7.82;100.00;98603.64;108411;1253;74164;-58
2024/02/11 04:22:23;;;;;;;21.70;12.70;;;;;;;7.79;100.00;98609.85;108387;1253;60886;-58
2024/02/11 04:25:34;;;;;;;39.60;11.40;;;;;;;7.74;100.00;98609.04;108402;1251;58535;-58
2024/02/11 04:28:47;;;;;;;22.30;12.20;;;;;;;7.76;100.00;98609.50;108358;1252;73775;-58
2024/02/11 04:31:47;;;;;;;32.50;10.90;;;;;;;7.84;100.00;98596.86;108380;1252;68183;-58
2024/02/11 04:34:53;;;;;;;22.50;11.80;;;;;;;7.72;100.00;98602.16;108248;1252;73347;-59
2024/02/11 04:37:55;;;;;;;53.10;12.00;;;;;;;7.77;100.00;98605.25;108397;1252;60641;-58
2024/02/11 04:41:00;;;;;;;36.10;11.00;;;;;;;7.75;100.00;98609.69;108332;1253;59661;-58
2024/02/11 04:44:13;;;;;;;35.30;11.40;;;;;;;7.77;100.00;98612.05;108298;1256;73726;-58
2024/02/11 04:47:24;;;;;;;29.70;11.90;;;;;;;7.76;100.00;98615.39;108402;1253;69140;-59
2024/02/11 04:50:37;;;;;;;27.80;11.50;;;;;;;7.82;100.00;98615.48;108381;1253;72547;-59
2024/02/11 04:53:48;;;;;;;27.30;12.00;;;;;;;7.82;100.00;98618.27;108348;1253;60976;-59
2024/02/11 04:57:00;;;;;;;24.30;11.60;;;;;;;7.92;100.00;98617.77;108330;1253;59712;-58
2024/02/11 05:00:23;;;;;;;21.40;11.70;;;;;;;7.89;100.00;98615.29;108302;1253;73779;-58
2024/02/11 05:03:28;;;;;;;35.50;12.30;;;;;;;7.84;100.00;98615.57;108355;1252;68030;-58
2024/02/11 05:06:40;;;;;;;26.10;12.30;;;;;;;7.90;100.00;98619.80;108374;1252;72387;-58
2024/02/11 05:09:51;;;;;;;28.50;11.90;;;;;;;7.94;100.00;98614.70;108226;1252;61072;-58
2024/02/11 05:13:04;;;;;;;36.70;12.50;;;;;;;7.86;100.00;98622.79;108372;1254;58837;-58
2024/02/11 05:16:15;;;;;;;29.60;11.20;;;;;;;7.83;100.00;98631.48;108409;1253;72667;-58
2024/02/11 05:19:43;;;;;;;40.20;12.60;;;;;;;7.88;100.00;98633.17;108439;1252;69284;-58
2024/02/11 05:22:55;;;;;;;28.70;12.20;;;;;;;7.92;100.00;98630.89;108169;1253;72384;-59
2024/02/11 05:26:02;;;;;;;17.90;12.20;;;;;;;7.96;100.00;98629.46;108399;1253;60690;-58
2024/02/11 05:29:32;;;;;;;21.50;11.60;;;;;;;7.96;100.00;98634.37;108307;1251;60905;-58
2024/02/11 05:32:45;;;;;;;29.40;12.40;;;;;;;7.98;100.00;98629.73;108470;1251;75088;-58
2024/02/11 05:35:54;;;;;;;41.90;11.60;;;;;;;8.09;100.00;98627.59;108378;1253;69338;-57
2024/02/11 05:39:09;;;;;;;25.10;11.30;;;;;;;8.01;100.00;98630.95;108408;1253;71752;-58
2024/02/11 05:42:17;;;;;;;23.30;11.10;;;;;;;7.99;100.00;98632.08;108391;1252;60677;-57
2024/02/11 05:45:29;;;;;;;43.90;12.30;;;;;;;8.03;100.00;98637.02;108390;1251;60665;-58
2024/02/11 05:48:40;;;;;;;28.80;11.70;;;;;;;8.07;100.00;98639.59;108405;1251;74095;-59
2024/02/11 05:51:51;;;;;;;33.10;11.60;;;;;;;8.06;100.00;98642.27;108294;1253;69514;-59
2024/02/11 05:57:44;;;;;;;51.40;12.60;;;;;;;8.15;100.00;98638.69;101250;1292;605157;-58
2024/02/11 06:00:50;;;;;;;29.50;11.60;;;;;;;8.12;100.00;98636.35;104635;1256;60697;-58
2024/02/11 06:04:02;;;;;;;19.10;11.60;;;;;;;8.07;100.00;98638.86;105053;1257;59592;-58
2024/02/11 06:07:14;;;;;;;41.10;11.80;;;;;;;8.09;100.00;98637.56;104648;1256;71941;-58
2024/02/11 06:10:58;;;;;;;23.50;12.40;;;;;;;8.04;100.00;98646.20;102963;1256;5993808;-58
2024/02/11 06:15:07;;;;;;;18.60;12.50;;;;;;;8.02;100.00;98643.83;105262;1254;69479;-58
2024/02/11 06:36:43;;;;;;;26.60;11.50;;;;;;;8.10;100.00;98607.84;104367;1269;70084;-58
2024/02/11 07:03:05;;;;;;;28.50;12.00;;;;;;;8.27;100.00;98612.09;104871;1253;74062;-58
2024/02/11 07:11:11;;;;;;;24.80;12.20;;;;;;;8.15;100.00;98626.11;104510;1253;59743;-59
2024/02/11 07:14:18;;;;;;;31.30;13.00;;;;;;;8.12;100.00;98627.66;104872;1256;72965;-58
2024/02/11 07:26:49;;;;;;;21.80;12.60;;;;;;;8.30;100.00;98645.41;104662;1267;60668;-61
2024/02/11 07:29:55;;;;;;;24.00;12.20;;;;;;;8.31;100.00;98649.25;104562;1263;60685;-57
2024/02/11 07:33:32;;;;;;;29.00;13.50;;;;;;;8.37;100.00;98659.40;101906;1292;601640;-59
2024/02/11 07:36:42;;;;;;;30.20;13.20;;;;;;;8.75;100.00;98661.17;104128;1269;60614;-57
2024/02/11 07:39:54;;;;;;;26.60;14.00;;;;;;;9.30;100.00;98656.96;103599;1272;59787;-60
2024/02/11 07:43:19;;;;;;;34.80;13.90;;;;;;;8.56;100.00;98655.02;104611;1266;72119;-59
2024/02/11 07:46:08;;;;;;;23.70;13.70;;;;;;;8.70;100.00;98653.91;104217;1266;953957;-58
2024/02/11 07:49:20;;;;;;;31.50;14.20;;;;;;;8.50;100.00;98654.44;104156;1266;72436;-58
2024/02/11 07:52:29;;;;;;;23.30;14.40;;;;;;;8.46;100.00;98658.63;104395;1261;61650;-58
2024/02/11 07:55:43;;;;;;;43.00;14.20;;;;;;;8.57;100.00;98658.46;104259;1265;60223;-57
2024/02/11 07:59:02;;;;;;;30.30;15.20;;;;;;;8.53;100.00;98664.74;104720;1261;70905;-59
2024/02/11 08:02:21;;;;;;;25.40;14.60;;;;;;;8.55;100.00;98666.57;104375;1261;69789;-57
2024/02/11 08:05:40;;;;;;;25.60;13.40;;;;;;;8.57;100.00;98665.08;104471;1263;73387;-58
2024/02/11 08:08:11;;;;;;;19.10;13.80;;;;;;;8.69;100.00;98667.83;105274;1259;60588;-58
2024/02/11 08:11:24;;;;;;;26.70;13.90;;;;;;;8.48;100.00;98666.08;105430;1259;60693;-58
2024/02/11 08:14:21;;;;;;;20.00;13.50;;;;;;;8.50;100.00;98667.86;104353;1255;73740;-58
2024/02/11 08:17:34;;;;;;;29.20;14.60;;;;;;;8.53;100.00;98664.23;104601;1256;67969;-56
2024/02/11 08:20:55;;;;;;;28.60;14.30;;;;;;;8.68;100.00;98664.37;104987;1255;72932;-57
2024/02/11 08:24:14;;;;;;;23.30;14.50;;;;;;;8.65;100.00;98666.97;104664;1254;60580;-58
2024/02/11 08:27:32;;;;;;;29.30;14.00;;;;;;;8.66;100.00;98662.38;104630;1260;60071;-59
2024/02/11 08:30:51;;;;;;;27.70;13.80;;;;;;;8.69;100.00;98667.64;105536;1256;72866;-59
2024/02/11 08:34:11;;;;;;;30.70;14.40;;;;;;;8.69;100.00;98670.42;105901;1255;70056;-58
2024/02/11 08:37:31;;;;;;;32.30;14.20;;;;;;;8.81;100.00;98667.05;104601;1258;72939;-58
2024/02/11 08:40:50;;;;;;;22.40;14.60;;;;;;;8.76;100.00;98662.01;104308;1263;59904;-63
2024/02/11 08:44:08;;;;;;;20.00;14.00;;;;;;;8.76;100.00;98662.55;104818;1257;60611;-64
2024/02/11 08:47:29;;;;;;;26.80;14.00;;;;;;;8.99;100.00;98659.83;104957;1258;73307;-64
2024/02/11 08:50:48;;;;;;;26.80;13.50;;;;;;;8.77;100.00;98660.07;105454;1254;69077;-64
2024/02/11 08:53:52;;;;;;;21.40;13.50;;;;;;;8.88;100.00;98666.32;105092;1259;71423;-65
2024/02/11 08:56:47;;;;;;;;;;;;;;;8.77;100.00;98667.59;104140;1257;61820;-63
2024/02/11 09:00:12;;;;;;;19.80;12.70;;;;;;;8.73;100.00;98658.00;105000;1254;60158;-64
2024/02/11 09:03:26;;;;;;;21.20;13.00;;;;;;;8.82;100.00;98681.32;104629;1259;72757;-65
2024/02/11 09:06:33;;;;;;;22.90;12.70;;;;;;;8.86;100.00;98684.26;105619;1256;69061;-57
2024/02/11 09:09:46;;;;;;;28.90;15.00;;;;;;;8.96;100.00;98677.78;106123;1256;74600;-58
2024/02/11 09:12:22;;;;;;;20.20;14.40;;;;;;;8.95;100.00;98673.84;104990;1259;60057;-58
2024/02/11 10:24:24;;;;;;;24.20;16.50;;;;;;;10.28;100.00;98634.41;103124;1284;604807;-58
2024/02/11 10:27:45;;;;;;;24.70;17.40;;;;;;;11.45;94.00;98618.48;104189;1267;61028;-58
2024/02/11 10:31:04;;;;;;;21.40;16.00;;;;;;;11.40;90.95;98607.23;103886;1269;59854;-60
2024/02/11 10:33:43;;;;;;;20.20;15.90;;;;;;;11.37;90.35;98604.46;103573;1267;71953;-59
2024/02/11 10:36:27;;;;;;;21.00;15.70;;;;;;;11.13;90.91;98605.02;103277;1272;1065467;-60
2024/02/11 10:39:41;;;;;;;20.70;16.00;;;;;;;10.73;95.75;98607.63;104422;1266;72520;-59
2024/02/11 10:42:59;;;;;;;21.10;15.60;;;;;;;10.67;97.00;98610.94;104348;1267;60536;-58
2024/02/11 10:46:20;;;;;;;25.50;17.20;;;;;;;10.19;100.00;98611.09;104690;1261;59669;-58
2024/02/11 10:48:55;;;;;;;21.60;16.50;;;;;;;10.15;100.00;98616.61;104461;1263;73434;-57
2024/02/11 10:52:13;;;;;;;23.50;15.80;;;;;;;10.15;100.00;98617.27;104671;1260;69216;-58
2024/02/11 10:55:29;;;;;;;22.30;16.10;;;;;;;10.77;97.62;98616.69;104318;1272;72576;-58
2024/02/11 10:58:29;;;;;;;20.50;15.00;;;;;;;10.82;94.50;98613.76;104579;1265;60567;-58
2024/02/11 11:01:43;;;;;;;19.30;15.50;;;;;;;10.91;94.18;98615.14;104482;1260;60121;-58
2024/02/11 11:05:03;;;;;;;23.60;16.60;;;;;;;11.01;92.87;98612.93;104213;1254;71883;-58
2024/02/11 11:08:22;;;;;;;20.60;15.50;;;;;;;11.04;91.47;98616.27;104742;1254;69755;-57
2024/02/11 11:11:41;;;;;;;20.80;17.20;;;;;;;11.08;90.40;98620.06;104564;1260;73165;-58
2024/02/11 11:15:01;;;;;;;22.80;16.80;;;;;;;10.97;90.64;98620.02;104385;1261;61563;-58
2024/02/11 11:18:21;;;;;;;22.50;16.90;;;;;;;10.56;94.42;98619.66;104475;1261;59745;-56
2024/02/11 11:20:56;;;;;;;22.30;17.40;;;;;;;10.47;96.45;98616.52;104921;1256;72859;-58
2024/02/11 11:24:09;;;;;;;21.30;16.00;;;;;;;10.12;99.23;98606.80;104708;1254;69085;-58
2024/02/11 11:26:53;;;;;;;22.50;16.90;;;;;;;9.89;100.00;98611.05;105309;1256;72312;-58
2024/02/11 11:30:10;;;;;;;19.30;15.10;;;;;;;9.91;100.00;98614.80;104492;1257;61282;-57
2024/02/11 11:33:23;;;;;;;20.00;16.10;;;;;;;9.78;100.00;98629.55;105593;1255;60201;-57
2024/02/11 11:36:44;;;;;;;21.40;16.40;;;;;;;9.72;100.00;98633.85;104372;1268;72756;-58
2024/02/11 11:40:04;;;;;;;21.50;16.50;;;;;;;9.69;100.00;98628.77;104675;1257;71902;-57
2024/02/11 11:43:24;;;;;;;18.30;15.70;;;;;;;9.66;100.00;98625.83;105006;1257;72822;-59
2024/02/11 11:46:00;;;;;;;22.20;15.80;;;;;;;9.62;100.00;98617.79;104923;1256;60711;-60
2024/02/11 11:49:12;;;;;;;20.10;16.40;;;;;;;9.67;100.00;98612.29;104725;1258;59953;-59
2024/02/11 11:52:33;;;;;;;20.00;16.10;;;;;;;9.68;100.00;98606.10;104562;1256;73509;-59
2024/02/11 11:55:19;;;;;;;21.00;15.70;;;;;;;9.68;100.00;98606.95;104380;1275;68372;-59
2024/02/11 11:58:32;;;;;;;16.50;14.40;;;;;;;9.65;100.00;98604.87;104441;1258;72715;-59
2024/02/11 12:01:12;;;;;;;17.80;14.50;;;;;;;9.64;100.00;98601.44;105142;1256;60631;-58
2024/02/11 12:04:24;;;;;;;18.00;14.90;;;;;;;9.66;100.00;98602.69;104782;1255;59854;-60
2024/02/11 12:07:44;;;;;;;18.70;14.80;;;;;;;9.70;100.00;98599.33;105749;1253;73057;-61
2024/02/11 12:10:58;;;;;;;18.80;15.10;;;;;;;9.71;100.00;98591.58;104540;1258;69001;-61
2024/02/11 12:14:18;;;;;;;17.30;14.30;;;;;;;10.04;100.00;98587.07;104810;1254;72928;-59
2024/02/11 12:17:37;;;;;;;20.00;14.90;;;;;;;9.79;100.00;98584.33;105825;1253;61772;-65
2024/02/11 12:20:57;;;;;;;18.70;15.10;;;;;;;9.81;100.00;98589.78;104935;1253;59331;-61
2024/02/11 12:23:56;;;;;;;;;;;;;;;10.63;98.06;98583.33;105186;1254;72922;-60
2024/02/11 12:27:46;;;;;;;18.50;13.70;;;;;;;10.74;93.26;98580.86;104677;1253;69348;-61
2024/02/11 12:31:06;;;;;;;22.40;14.20;;;;;;;9.94;100.00;98575.08;105353;1256;72385;-60
2024/02/11 12:34:13;;;;;;;17.50;14.10;;;;;;;9.87;100.00;98571.46;105314;1256;61074;-59
2024/02/11 12:37:27;;;;;;;19.90;14.00;;;;;;;9.80;100.00;98563.29;104970;1252;60278;-58
2024/02/11 12:40:18;;;;;;;15.60;13.60;;;;;;;9.75;100.00;98563.38;105296;1257;73711;-60
2024/02/11 12:43:30;;;;;;;16.50;13.40;;;;;;;9.67;100.00;98564.50;104637;1260;69501;-58
2024/02/11 12:46:53;;;;;;;15.60;13.00;;;;;;;9.78;100.00;98567.20;105636;1253;72533;-59
2024/02/11 12:50:09;;;;;;;15.90;12.20;;;;;;;9.81;100.00;98568.45;105565;1253;59625;-60
2024/02/11 12:53:17;;;;;;;15.40;12.90;;;;;;;9.72;100.00;98564.23;104858;1254;59989;-60
2024/02/11 12:56:30;;;;;;;14.40;12.60;;;;;;;9.73;100.00;98566.41;105092;1255;72879;-60
2024/02/11 12:59:49;;;;;;;15.70;13.80;;;;;;;9.73;100.00;98562.44;104883;1253;69050;-59
2024/02/11 13:02:42;;;;;;;15.30;13.30;;;;;;;9.64;100.00;98563.12;106620;1253;72526;-60
2024/02/11 13:05:54;;;;;;;18.00;14.30;;;;;;;9.64;100.00;98562.59;105164;1253;61116;-59
2024/02/11 13:09:13;;;;;;;16.20;13.30;;;;;;;9.62;100.00;98561.30;104613;1257;60841;-58
2024/02/11 13:12:38;;;;;;;15.80;13.90;;;;;;;9.67;100.00;98561.71;106066;1252;73463;-59
2024/02/11 13:15:50;;;;;;;17.90;14.30;;;;;;;9.69;100.00;98550.92;105484;1255;70371;-59
2024/02/11 13:18:34;;;;;;;16.70;13.80;;;;;;;9.71;100.00;98551.31;105036;1253;74825;-58
2024/02/11 13:21:47;;;;;;;18.80;15.00;;;;;;;9.68;100.00;98550.79;104441;1254;60559;-58
2024/02/11 13:25:15;;;;;;;20.00;13.40;;;;;;;9.60;100.00;98547.73;104522;1255;60693;-64
2024/02/11 13:28:29;;;;;;;20.30;14.70;;;;;;;9.60;100.00;98535.36;104922;1256;73167;-60
2024/02/11 13:31:48;;;;;;;19.80;14.50;;;;;;;9.68;100.00;98538.04;105564;1253;69740;-60
2024/02/11 13:35:10;;;;;;;20.20;14.70;;;;;;;9.74;100.00;98526.47;105283;1253;72494;-61
2024/02/11 13:38:25;;;;;;;18.80;15.00;;;;;;;9.63;100.00;98515.58;105539;1255;60262;-61
2024/02/11 13:41:40;;;;;;;20.80;15.30;;;;;;;9.57;100.00;98505.78;104904;1252;59810;-61
2024/02/11 13:45:01;;;;;;;18.70;15.20;;;;;;;9.56;100.00;98507.55;104632;1253;72884;-61
2024/02/11 13:48:21;;;;;;;20.20;15.00;;;;;;;9.60;100.00;98505.80;104982;1264;68423;-60
2024/02/11 13:51:40;;;;;;;18.00;16.10;;;;;;;9.58;100.00;98503.25;104791;1255;73113;-60
2024/02/11 13:54:59;;;;;;;20.60;16.40;;;;;;;9.53;100.00;98500.02;104393;1257;61151;-60
2024/02/11 13:58:18;;;;;;;21.40;17.00;;;;;;;9.50;100.00;98500.94;105103;1259;63169;-60
2024/02/11 14:01:37;;;;;;;21.30;16.70;;;;;;;9.52;100.00;98502.20;105264;1253;71969;-61
2024/02/11 14:04:56;;;;;;;22.30;17.80;;;;;;;9.38;100.00;98497.39;105708;1258;69476;-63
2024/02/11 14:08:15;;;;;;;25.20;17.20;;;;;;;9.31;100.00;98485.17;105311;1257;72970;-60
2024/02/11 14:11:36;;;;;;;26.50;18.00;;;;;;;9.28;100.00;98481.86;105386;1253;61161;-60
2024/02/11 14:14:55;;;;;;;23.20;17.60;;;;;;;9.28;100.00;98479.90;105388;1255;59759;-64
2024/02/11 14:18:14;;;;;;;22.90;16.60;;;;;;;9.23;100.00;98484.22;104333;1257;76184;-60
2024/02/11 14:21:33;;;;;;;22.80;17.10;;;;;;;9.17;100.00;98480.38;105019;1257;69489;-60
2024/02/11 14:25:00;;;;;;;28.10;17.60;;;;;;;9.17;100.00;98482.80;104840;1254;72470;-60
2024/02/11 14:28:22;;;;;;;31.50;16.50;;;;;;;9.36;100.00;98482.43;105337;1253;60723;-60
2024/02/11 14:31:41;;;;;;;29.20;17.70;;;;;;;9.26;100.00;98476.05;105044;1253;60329;-61
2024/02/11 14:35:02;;;;;;;24.20;17.60;;;;;;;9.08;100.00;98480.31;104440;1269;72872;-60
2024/02/11 14:38:21;;;;;;;22.90;18.00;;;;;;;9.32;100.00;98495.05;104882;1253;69676;-61
2024/02/11 14:41:41;;;;;;;21.70;17.20;;;;;;;9.09;100.00;98491.14;105850;1254;72661;-61
2024/02/11 14:45:01;;;;;;;20.80;17.20;;;;;;;9.08;100.00;98494.69;105078;1255;61755;-61
2024/02/11 14:48:21;;;;;;;21.70;17.30;;;;;;;9.02;100.00;98489.39;105068;1257;60899;-60
2024/02/11 14:51:41;;;;;;;22.80;17.10;;;;;;;9.06;100.00;98503.15;104835;1263;72878;-61
2024/02/11 14:54:57;;;;;;;21.20;17.10;;;;;;;9.03;100.00;98521.34;105459;1255;69519;-62
2024/02/11 14:58:18;;;;;;;24.90;17.50;;;;;;;9.16;100.00;98529.17;105125;1253;72548;-61
2024/02/11 15:01:32;;;;;;;19.10;15.90;;;;;;;9.37;100.00;98525.02;105599;1256;61258;-61
2024/02/11 15:04:44;;;;;;;27.20;17.70;;;;;;;9.18;100.00;98518.27;105192;1254;62734;-61
2024/02/11 15:08:05;;;;;;;20.50;17.50;;;;;;;9.07;100.00;98523.20;105142;1254;73530;-62
2024/02/11 15:10:55;;;;;;;22.10;17.20;;;;;;;9.03;100.00;98527.64;105172;1253;69586;-61
2024/02/11 15:14:09;;;;;;;19.40;16.60;;;;;;;8.99;100.00;98525.43;105541;1254;72482;-62
2024/02/11 15:17:28;;;;;;;21.70;16.90;;;;;;;8.98;100.00;98527.58;105181;1253;61165;-62
2024/02/11 15:20:45;;;;;;;24.50;17.70;;;;;;;9.21;100.00;98524.92;104947;1257;60669;-60
2024/02/11 15:24:05;;;;;;;34.70;16.70;;;;;;;9.06;100.00;98524.02;105183;1251;73640;-60
2024/02/11 15:26:42;;;;;;;31.90;17.40;;;;;;;8.94;100.00;98526.02;104310;1257;68689;-59
2024/02/11 15:29:54;;;;;;;24.40;18.40;;;;;;;8.91;100.00;98531.59;105501;1253;72850;-59
2024/02/11 15:33:13;;;;;;;33.60;20.10;;;;;;;8.97;100.00;98544.06;104906;1255;61092;-60
2024/02/11 15:36:32;;;;;;;29.20;20.70;;;;;;;9.05;100.00;98535.77;104901;1253;59791;-60
2024/02/11 15:39:25;;;;;;;26.00;21.10;;;;;;;9.28;100.00;98539.89;104783;1257;72870;-61
2024/02/11 15:42:38;;;;;;;27.80;21.40;;;;;;;9.10;100.00;98540.02;104523;1263;70168;-61
2024/02/11 15:45:20;;;;;;;32.30;22.70;;;;;;;9.13;100.00;98548.04;104552;1253;72486;-61
2024/02/11 15:48:32;;;;;;;25.00;20.60;;;;;;;9.17;100.00;98554.66;105273;1265;60703;-60
2024/02/11 15:51:51;;;;;;;34.90;21.80;;;;;;;9.18;100.00;98565.27;104925;1252;60498;-60
2024/02/11 15:55:06;;;;;;;28.50;18.60;;;;;;;9.16;100.00;98565.23;104989;1257;74384;-70
2024/02/11 15:58:24;;;;;;;20.80;17.30;;;;;;;9.12;100.00;98563.33;105442;1256;69764;-70
2024/02/11 16:01:44;;;;;;;21.00;18.30;;;;;;;9.20;100.00;98557.69;104835;1257;73368;-71
2024/02/11 16:05:03;;;;;;;30.20;18.10;;;;;;;9.12;100.00;98558.98;104704;1254;61901;-71
2024/02/11 16:08:22;;;;;;;25.00;19.30;;;;;;;9.13;100.00;98556.98;104725;1256;60521;-71
2024/02/11 16:11:41;;;;;;;22.10;17.80;;;;;;;9.17;100.00;98556.58;105117;1253;74335;-72
2024/02/11 16:15:00;;;;;;;26.30;17.70;;;;;;;9.10;100.00;98550.13;104748;1253;70208;-71
2024/02/11 16:18:19;;;;;;;25.20;18.00;;;;;;;9.05;100.00;98556.36;104739;1257;72381;-71
2024/02/11 16:21:39;;;;;;;28.20;19.40;;;;;;;9.10;100.00;98550.69;106414;1256;61225;-63
2024/02/11 16:24:58;;;;;;;27.50;19.00;;;;;;;9.14;100.00;98563.06;105008;1255;60523;-70
2024/02/11 16:28:17;;;;;;;35.60;19.50;;;;;;;9.20;100.00;98564.98;104910;1257;74015;-70
2024/02/11 16:31:36;;;;;;;32.00;20.20;;;;;;;9.23;100.00;98562.04;105285;1257;69606;-71
2024/02/11 16:34:55;;;;;;;32.20;19.50;;;;;;;9.27;100.00;98550.30;105326;1269;73416;-71
2024/02/11 16:38:14;;;;;;;30.20;20.00;;;;;;;9.26;100.00;98548.42;104686;1258;60975;-71